メインページ
METAR-TAF:

METAR-TAF

空港 :

立川飛行場

立川, 日本

緯度: 35-42N, 経度: 139-24E, 海抜: 95m

現時点の気象観測

当レポートは10時間11分前の21:12(UTC)に作成
北/北西の風 3kt
気温 20°C
湿度 78%
気圧 1015 hPa
視程10km以上
高度3000ftの雲はほとんどない
高度4000ftの千切れ雲あり
高度7000ftの千切れ雲あり
小雨

METAR: RJTC 192112Z 34003KT 9999 -RA FEW030 BKN040 BKN070 20/16 Q1015 RMK 1SC030 6SC040 6AC070 A2999

時間: 16:23 (07:23 UTC)


TAF: 見つかりません

4,000以上の空港の気象観測と天気予報(METAR報とTAF報)

利用可能な観測所は地図上に黄色い丸と赤い丸で示す。

丸の上にカーソルを重ねると観測所名を参照できる。

次にクリックすると気象観測と天気予報を参照できる。

マップの切り替え:黒色「×」印の緑ボタンをクリックして拡大、「-」印の緑ボタンをクリックして縮小、緑色の三角印をクリックして隣りの地図に切り替え


METAR-TAF: